sensor_id;sensor_type;location;lat;lon;timestamp;P1;durP1;ratioP1;P2;durP2;ratioP2
28862;SDS011;15994;51.796;13.006;2023-04-06T00:02:23;8.63;;;5.00;;
28862;SDS011;15994;51.796;13.006;2023-04-06T00:04:50;8.32;;;4.97;;
28862;SDS011;15994;51.796;13.006;2023-04-06T00:07:17;11.65;;;5.88;;
28862;SDS011;15994;51.796;13.006;2023-04-06T00:09:43;9.48;;;4.88;;
28862;SDS011;15994;51.796;13.006;2023-04-06T00:12:10;8.80;;;5.40;;
28862;SDS011;15994;51.796;13.006;2023-04-06T00:14:36;10.07;;;5.15;;
28862;SDS011;15994;51.796;13.006;2023-04-06T00:17:03;12.15;;;4.97;;
28862;SDS011;15994;51.796;13.006;2023-04-06T00:19:29;8.60;;;5.18;;
28862;SDS011;15994;51.796;13.006;2023-04-06T00:21:56;9.65;;;4.90;;
28862;SDS011;15994;51.796;13.006;2023-04-06T00:24:22;13.00;;;4.90;;
28862;SDS011;15994;51.796;13.006;2023-04-06T00:26:49;8.30;;;4.95;;
28862;SDS011;15994;51.796;13.006;2023-04-06T00:29:15;11.00;;;5.45;;
28862;SDS011;15994;51.796;13.006;2023-04-06T00:31:42;11.43;;;5.65;;
28862;SDS011;15994;51.796;13.006;2023-04-06T00:34:09;9.05;;;4.95;;
28862;SDS011;15994;51.796;13.006;2023-04-06T00:36:36;9.63;;;5.68;;
28862;SDS011;15994;51.796;13.006;2023-04-06T00:39:02;9.30;;;4.95;;
28862;SDS011;15994;51.796;13.006;2023-04-06T00:41:29;9.57;;;5.57;;
28862;SDS011;15994;51.796;13.006;2023-04-06T00:43:56;9.85;;;5.35;;
28862;SDS011;15994;51.796;13.006;2023-04-06T00:46:22;10.25;;;5.32;;
28862;SDS011;15994;51.796;13.006;2023-04-06T00:48:49;12.18;;;6.40;;
28862;SDS011;15994;51.796;13.006;2023-04-06T00:51:16;11.32;;;5.10;;
28862;SDS011;15994;51.796;13.006;2023-04-06T00:53:42;12.05;;;5.78;;
28862;SDS011;15994;51.796;13.006;2023-04-06T00:56:09;8.75;;;5.68;;
28862;SDS011;15994;51.796;13.006;2023-04-06T00:58:36;10.05;;;5.03;;
28862;SDS011;15994;51.796;13.006;2023-04-06T01:01:03;10.45;;;5.80;;
28862;SDS011;15994;51.796;13.006;2023-04-06T01:03:30;11.23;;;5.95;;
28862;SDS011;15994;51.796;13.006;2023-04-06T01:05:57;13.10;;;6.15;;
28862;SDS011;15994;51.796;13.006;2023-04-06T01:08:24;10.48;;;6.18;;
28862;SDS011;15994;51.796;13.006;2023-04-06T01:10:51;11.68;;;5.90;;
28862;SDS011;15994;51.796;13.006;2023-04-06T01:13:17;11.75;;;6.25;;
28862;SDS011;15994;51.796;13.006;2023-04-06T01:15:44;10.80;;;6.22;;
28862;SDS011;15994;51.796;13.006;2023-04-06T01:18:12;13.43;;;6.18;;
28862;SDS011;15994;51.796;13.006;2023-04-06T01:20:38;13.48;;;6.38;;
28862;SDS011;15994;51.796;13.006;2023-04-06T01:23:05;12.57;;;6.43;;
28862;SDS011;15994;51.796;13.006;2023-04-06T01:25:31;11.05;;;6.13;;
28862;SDS011;15994;51.796;13.006;2023-04-06T01:27:58;11.02;;;6.05;;
28862;SDS011;15994;51.796;13.006;2023-04-06T01:30:24;12.57;;;6.20;;
28862;SDS011;15994;51.796;13.006;2023-04-06T01:32:51;14.07;;;6.28;;
28862;SDS011;15994;51.796;13.006;2023-04-06T01:35:18;13.07;;;6.57;;
28862;SDS011;15994;51.796;13.006;2023-04-06T01:37:45;14.13;;;7.32;;
28862;SDS011;15994;51.796;13.006;2023-04-06T01:42:58;10.93;;;6.82;;
28862;SDS011;15994;51.796;13.006;2023-04-06T01:45:25;11.82;;;6.20;;
28862;SDS011;15994;51.796;13.006;2023-04-06T01:47:51;13.68;;;6.80;;
28862;SDS011;15994;51.796;13.006;2023-04-06T01:50:18;9.55;;;6.10;;
28862;SDS011;15994;51.796;13.006;2023-04-06T01:52:44;11.05;;;5.95;;
28862;SDS011;15994;51.796;13.006;2023-04-06T01:55:11;13.43;;;6.50;;
28862;SDS011;15994;51.796;13.006;2023-04-06T01:57:37;9.82;;;6.03;;
28862;SDS011;15994;51.796;13.006;2023-04-06T02:00:04;11.95;;;7.13;;
28862;SDS011;15994;51.796;13.006;2023-04-06T02:02:31;12.55;;;6.63;;
28862;SDS011;15994;51.796;13.006;2023-04-06T02:04:58;15.05;;;7.50;;
28862;SDS011;15994;51.796;13.006;2023-04-06T02:07:24;12.73;;;7.00;;
28862;SDS011;15994;51.796;13.006;2023-04-06T02:09:53;14.82;;;7.20;;
28862;SDS011;15994;51.796;13.006;2023-04-06T02:12:20;10.85;;;7.05;;
28862;SDS011;15994;51.796;13.006;2023-04-06T02:14:47;11.18;;;6.47;;
28862;SDS011;15994;51.796;13.006;2023-04-06T02:17:13;12.30;;;6.93;;
28862;SDS011;15994;51.796;13.006;2023-04-06T02:19:40;9.63;;;6.30;;
28862;SDS011;15994;51.796;13.006;2023-04-06T02:22:06;12.80;;;7.28;;
28862;SDS011;15994;51.796;13.006;2023-04-06T02:24:33;13.23;;;6.60;;
28862;SDS011;15994;51.796;13.006;2023-04-06T02:27:00;11.85;;;7.38;;
28862;SDS011;15994;51.796;13.006;2023-04-06T02:29:27;11.60;;;6.95;;
28862;SDS011;15994;51.796;13.006;2023-04-06T02:31:53;12.45;;;6.95;;
28862;SDS011;15994;51.796;13.006;2023-04-06T02:34:20;9.63;;;6.45;;
28862;SDS011;15994;51.796;13.006;2023-04-06T02:36:46;12.80;;;7.07;;
28862;SDS011;15994;51.796;13.006;2023-04-06T02:39:13;13.00;;;7.28;;
28862;SDS011;15994;51.796;13.006;2023-04-06T02:41:40;12.25;;;7.35;;
28862;SDS011;15994;51.796;13.006;2023-04-06T02:44:07;11.98;;;7.38;;
28862;SDS011;15994;51.796;13.006;2023-04-06T02:46:34;13.40;;;7.22;;
28862;SDS011;15994;51.796;13.006;2023-04-06T02:49:01;11.73;;;7.18;;
28862;SDS011;15994;51.796;13.006;2023-04-06T02:51:27;13.40;;;7.72;;
28862;SDS011;15994;51.796;13.006;2023-04-06T02:53:54;13.13;;;7.72;;
28862;SDS011;15994;51.796;13.006;2023-04-06T02:56:21;11.40;;;7.30;;
28862;SDS011;15994;51.796;13.006;2023-04-06T02:58:47;10.82;;;7.72;;
28862;SDS011;15994;51.796;13.006;2023-04-06T03:01:14;10.68;;;7.43;;
28862;SDS011;15994;51.796;13.006;2023-04-06T03:03:40;12.23;;;7.72;;
28862;SDS011;15994;51.796;13.006;2023-04-06T03:06:07;12.38;;;7.18;;
28862;SDS011;15994;51.796;13.006;2023-04-06T03:08:33;12.32;;;7.68;;
28862;SDS011;15994;51.796;13.006;2023-04-06T03:11:00;11.77;;;7.55;;
28862;SDS011;15994;51.796;13.006;2023-04-06T03:13:27;12.32;;;7.40;;
28862;SDS011;15994;51.796;13.006;2023-04-06T03:15:53;13.23;;;7.70;;
28862;SDS011;15994;51.796;13.006;2023-04-06T03:18:21;13.35;;;7.38;;
28862;SDS011;15994;51.796;13.006;2023-04-06T03:20:49;10.40;;;7.10;;
28862;SDS011;15994;51.796;13.006;2023-04-06T03:23:15;12.50;;;7.13;;
28862;SDS011;15994;51.796;13.006;2023-04-06T03:25:42;13.38;;;8.00;;
28862;SDS011;15994;51.796;13.006;2023-04-06T03:28:08;13.35;;;8.05;;
28862;SDS011;15994;51.796;13.006;2023-04-06T03:30:35;13.55;;;7.78;;
28862;SDS011;15994;51.796;13.006;2023-04-06T03:33:01;11.57;;;7.18;;
28862;SDS011;15994;51.796;13.006;2023-04-06T03:35:28;13.23;;;7.80;;
28862;SDS011;15994;51.796;13.006;2023-04-06T03:37:55;16.40;;;7.97;;
28862;SDS011;15994;51.796;13.006;2023-04-06T03:40:21;11.68;;;7.32;;
28862;SDS011;15994;51.796;13.006;2023-04-06T03:42:48;13.20;;;7.82;;
28862;SDS011;15994;51.796;13.006;2023-04-06T03:45:14;12.43;;;7.80;;
28862;SDS011;15994;51.796;13.006;2023-04-06T03:47:41;14.82;;;8.73;;
28862;SDS011;15994;51.796;13.006;2023-04-06T03:50:07;23.73;;;11.02;;
28862;SDS011;15994;51.796;13.006;2023-04-06T03:52:35;24.08;;;10.98;;
28862;SDS011;15994;51.796;13.006;2023-04-06T03:55:02;13.07;;;7.65;;
28862;SDS011;15994;51.796;13.006;2023-04-06T03:57:29;14.88;;;8.73;;
28862;SDS011;15994;51.796;13.006;2023-04-06T03:59:55;10.32;;;7.20;;
28862;SDS011;15994;51.796;13.006;2023-04-06T04:02:22;13.50;;;7.53;;
28862;SDS011;15994;51.796;13.006;2023-04-06T04:04:48;11.88;;;7.35;;
28862;SDS011;15994;51.796;13.006;2023-04-06T04:07:15;11.38;;;7.15;;
28862;SDS011;15994;51.796;13.006;2023-04-06T04:09:41;11.00;;;6.65;;
28862;SDS011;15994;51.796;13.006;2023-04-06T04:12:08;14.82;;;7.13;;
28862;SDS011;15994;51.796;13.006;2023-04-06T04:14:35;13.30;;;7.25;;
28862;SDS011;15994;51.796;13.006;2023-04-06T04:17:01;15.27;;;8.10;;
28862;SDS011;15994;51.796;13.006;2023-04-06T04:19:28;16.02;;;8.07;;
28862;SDS011;15994;51.796;13.006;2023-04-06T04:21:55;13.05;;;7.63;;
28862;SDS011;15994;51.796;13.006;2023-04-06T04:24:21;11.98;;;7.80;;
28862;SDS011;15994;51.796;13.006;2023-04-06T04:26:48;16.13;;;8.13;;
28862;SDS011;15994;51.796;13.006;2023-04-06T04:29:14;11.60;;;7.40;;
28862;SDS011;15994;51.796;13.006;2023-04-06T04:31:41;15.52;;;10.07;;
28862;SDS011;15994;51.796;13.006;2023-04-06T04:34:08;16.75;;;10.27;;
28862;SDS011;15994;51.796;13.006;2023-04-06T04:36:34;15.98;;;9.32;;
28862;SDS011;15994;51.796;13.006;2023-04-06T04:39:01;13.57;;;8.55;;
28862;SDS011;15994;51.796;13.006;2023-04-06T04:41:27;16.10;;;8.98;;
28862;SDS011;15994;51.796;13.006;2023-04-06T04:43:54;17.52;;;8.27;;
28862;SDS011;15994;51.796;13.006;2023-04-06T04:46:20;13.48;;;8.35;;
28862;SDS011;15994;51.796;13.006;2023-04-06T04:48:47;13.20;;;8.07;;
28862;SDS011;15994;51.796;13.006;2023-04-06T04:51:15;13.05;;;8.05;;
28862;SDS011;15994;51.796;13.006;2023-04-06T04:53:41;12.70;;;7.70;;
28862;SDS011;15994;51.796;13.006;2023-04-06T04:56:08;12.70;;;8.60;;
28862;SDS011;15994;51.796;13.006;2023-04-06T04:58:34;16.40;;;8.35;;
28862;SDS011;15994;51.796;13.006;2023-04-06T05:01:01;12.73;;;7.90;;
28862;SDS011;15994;51.796;13.006;2023-04-06T05:03:27;15.15;;;8.93;;
28862;SDS011;15994;51.796;13.006;2023-04-06T05:05:54;13.93;;;8.88;;
28862;SDS011;15994;51.796;13.006;2023-04-06T05:08:20;15.70;;;8.90;;
28862;SDS011;15994;51.796;13.006;2023-04-06T05:10:47;15.10;;;8.70;;
28862;SDS011;15994;51.796;13.006;2023-04-06T05:13:14;14.23;;;8.90;;
28862;SDS011;15994;51.796;13.006;2023-04-06T05:15:41;12.60;;;8.68;;
28862;SDS011;15994;51.796;13.006;2023-04-06T05:18:07;14.75;;;9.30;;
28862;SDS011;15994;51.796;13.006;2023-04-06T05:20:34;17.88;;;9.40;;
28862;SDS011;15994;51.796;13.006;2023-04-06T05:23:01;17.13;;;10.20;;
28862;SDS011;15994;51.796;13.006;2023-04-06T05:25:28;13.30;;;8.95;;
28862;SDS011;15994;51.796;13.006;2023-04-06T05:27:54;15.00;;;8.95;;
28862;SDS011;15994;51.796;13.006;2023-04-06T05:30:21;13.70;;;9.25;;
28862;SDS011;15994;51.796;13.006;2023-04-06T05:32:48;15.55;;;8.88;;
28862;SDS011;15994;51.796;13.006;2023-04-06T05:35:14;13.23;;;8.75;;
28862;SDS011;15994;51.796;13.006;2023-04-06T05:37:42;14.57;;;8.80;;
28862;SDS011;15994;51.796;13.006;2023-04-06T05:40:09;14.05;;;8.82;;
28862;SDS011;15994;51.796;13.006;2023-04-06T05:42:39;15.90;;;9.50;;
28862;SDS011;15994;51.796;13.006;2023-04-06T05:45:06;12.93;;;8.63;;
28862;SDS011;15994;51.796;13.006;2023-04-06T05:47:33;17.90;;;8.43;;
28862;SDS011;15994;51.796;13.006;2023-04-06T05:50:00;18.73;;;8.05;;
28862;SDS011;15994;51.796;13.006;2023-04-06T05:52:26;14.48;;;8.80;;
28862;SDS011;15994;51.796;13.006;2023-04-06T05:54:53;15.38;;;9.10;;
28862;SDS011;15994;51.796;13.006;2023-04-06T05:57:20;16.05;;;9.82;;
28862;SDS011;15994;51.796;13.006;2023-04-06T05:59:47;15.85;;;9.77;;
28862;SDS011;15994;51.796;13.006;2023-04-06T06:02:13;12.40;;;8.23;;
28862;SDS011;15994;51.796;13.006;2023-04-06T06:04:40;14.35;;;8.90;;
28862;SDS011;15994;51.796;13.006;2023-04-06T06:07:06;13.73;;;8.50;;
28862;SDS011;15994;51.796;13.006;2023-04-06T06:09:32;12.90;;;8.52;;
28862;SDS011;15994;51.796;13.006;2023-04-06T06:11:59;14.52;;;8.18;;
28862;SDS011;15994;51.796;13.006;2023-04-06T06:14:26;13.18;;;8.55;;
28862;SDS011;15994;51.796;13.006;2023-04-06T06:16:53;14.75;;;8.52;;
28862;SDS011;15994;51.796;13.006;2023-04-06T06:19:20;14.00;;;8.30;;
28862;SDS011;15994;51.796;13.006;2023-04-06T06:21:46;13.30;;;8.30;;
28862;SDS011;15994;51.796;13.006;2023-04-06T06:24:13;11.27;;;7.88;;
28862;SDS011;15994;51.796;13.006;2023-04-06T06:26:40;12.48;;;7.90;;
28862;SDS011;15994;51.796;13.006;2023-04-06T06:29:07;12.50;;;7.78;;
28862;SDS011;15994;51.796;13.006;2023-04-06T06:31:34;12.85;;;7.70;;
28862;SDS011;15994;51.796;13.006;2023-04-06T06:34:01;11.88;;;8.18;;
28862;SDS011;15994;51.796;13.006;2023-04-06T06:36:28;12.02;;;7.93;;
28862;SDS011;15994;51.796;13.006;2023-04-06T06:38:55;11.70;;;7.47;;
28862;SDS011;15994;51.796;13.006;2023-04-06T06:41:22;12.95;;;7.93;;
28862;SDS011;15994;51.796;13.006;2023-04-06T06:43:48;15.73;;;8.07;;
28862;SDS011;15994;51.796;13.006;2023-04-06T06:46:15;12.73;;;8.05;;
28862;SDS011;15994;51.796;13.006;2023-04-06T06:48:41;11.13;;;7.75;;
28862;SDS011;15994;51.796;13.006;2023-04-06T06:51:08;13.75;;;9.05;;
28862;SDS011;15994;51.796;13.006;2023-04-06T06:53:36;15.20;;;9.77;;
28862;SDS011;15994;51.796;13.006;2023-04-06T06:56:03;16.73;;;9.68;;
28862;SDS011;15994;51.796;13.006;2023-04-06T06:58:29;15.05;;;8.75;;
28862;SDS011;15994;51.796;13.006;2023-04-06T07:00:56;20.15;;;12.30;;
28862;SDS011;15994;51.796;13.006;2023-04-06T07:03:24;15.18;;;9.88;;
28862;SDS011;15994;51.796;13.006;2023-04-06T07:05:51;12.20;;;8.13;;
28862;SDS011;15994;51.796;13.006;2023-04-06T07:08:22;15.30;;;9.00;;
28862;SDS011;15994;51.796;13.006;2023-04-06T07:10:50;17.60;;;10.07;;
28862;SDS011;15994;51.796;13.006;2023-04-06T07:13:18;12.40;;;7.63;;
28862;SDS011;15994;51.796;13.006;2023-04-06T07:15:47;12.73;;;7.35;;
28862;SDS011;15994;51.796;13.006;2023-04-06T07:18:15;13.80;;;7.10;;
28862;SDS011;15994;51.796;13.006;2023-04-06T07:20:42;10.05;;;7.13;;
28862;SDS011;15994;51.796;13.006;2023-04-06T07:23:08;10.30;;;7.55;;
28862;SDS011;15994;51.796;13.006;2023-04-06T07:25:35;11.85;;;7.70;;
28862;SDS011;15994;51.796;13.006;2023-04-06T07:28:02;14.38;;;7.90;;
28862;SDS011;15994;51.796;13.006;2023-04-06T07:30:29;12.40;;;7.45;;
28862;SDS011;15994;51.796;13.006;2023-04-06T07:32:56;11.02;;;7.18;;
28862;SDS011;15994;51.796;13.006;2023-04-06T07:35:23;15.02;;;7.85;;
28862;SDS011;15994;51.796;13.006;2023-04-06T07:37:51;13.38;;;8.10;;
28862;SDS011;15994;51.796;13.006;2023-04-06T07:40:18;11.45;;;8.00;;
28862;SDS011;15994;51.796;13.006;2023-04-06T07:42:45;12.00;;;7.50;;
28862;SDS011;15994;51.796;13.006;2023-04-06T07:45:12;11.35;;;7.40;;
28862;SDS011;15994;51.796;13.006;2023-04-06T07:47:40;10.40;;;6.80;;
28862;SDS011;15994;51.796;13.006;2023-04-06T07:50:07;11.88;;;7.10;;
28862;SDS011;15994;51.796;13.006;2023-04-06T07:52:33;12.00;;;7.45;;
28862;SDS011;15994;51.796;13.006;2023-04-06T07:55:00;10.55;;;6.78;;
28862;SDS011;15994;51.796;13.006;2023-04-06T07:57:27;10.05;;;6.50;;
28862;SDS011;15994;51.796;13.006;2023-04-06T07:59:53;12.50;;;6.80;;
28862;SDS011;15994;51.796;13.006;2023-04-06T08:02:20;11.65;;;6.93;;
28862;SDS011;15994;51.796;13.006;2023-04-06T08:04:47;13.50;;;6.90;;
28862;SDS011;15994;51.796;13.006;2023-04-06T08:07:14;10.45;;;6.40;;
28862;SDS011;15994;51.796;13.006;2023-04-06T08:09:40;12.52;;;7.15;;
28862;SDS011;15994;51.796;13.006;2023-04-06T08:12:07;9.00;;;6.10;;
28862;SDS011;15994;51.796;13.006;2023-04-06T08:14:34;9.77;;;6.63;;
28862;SDS011;15994;51.796;13.006;2023-04-06T08:17:00;10.95;;;6.50;;
28862;SDS011;15994;51.796;13.006;2023-04-06T08:19:27;7.60;;;5.13;;
28862;SDS011;15994;51.796;13.006;2023-04-06T08:21:53;9.48;;;5.50;;
28862;SDS011;15994;51.796;13.006;2023-04-06T08:24:20;9.00;;;5.30;;
28862;SDS011;15994;51.796;13.006;2023-04-06T08:26:46;8.90;;;5.40;;
28862;SDS011;15994;51.796;13.006;2023-04-06T08:29:13;11.85;;;5.30;;
28862;SDS011;15994;51.796;13.006;2023-04-06T08:31:41;8.38;;;5.22;;
28862;SDS011;15994;51.796;13.006;2023-04-06T08:34:08;9.27;;;5.47;;
28862;SDS011;15994;51.796;13.006;2023-04-06T08:36:35;8.73;;;5.60;;
28862;SDS011;15994;51.796;13.006;2023-04-06T08:39:03;10.38;;;5.50;;
28862;SDS011;15994;51.796;13.006;2023-04-06T08:41:30;10.82;;;5.93;;
28862;SDS011;15994;51.796;13.006;2023-04-06T08:44:00;10.38;;;5.10;;
28862;SDS011;15994;51.796;13.006;2023-04-06T08:46:28;9.35;;;5.63;;
28862;SDS011;15994;51.796;13.006;2023-04-06T08:49:02;10.55;;;5.90;;
28862;SDS011;15994;51.796;13.006;2023-04-06T08:51:31;9.05;;;4.90;;
28862;SDS011;15994;51.796;13.006;2023-04-06T08:53:58;9.02;;;4.85;;
28862;SDS011;15994;51.796;13.006;2023-04-06T08:56:26;9.63;;;5.07;;
28862;SDS011;15994;51.796;13.006;2023-04-06T08:58:55;9.35;;;4.75;;
28862;SDS011;15994;51.796;13.006;2023-04-06T09:01:26;8.93;;;4.80;;
28862;SDS011;15994;51.796;13.006;2023-04-06T09:03:56;7.53;;;4.35;;
28862;SDS011;15994;51.796;13.006;2023-04-06T09:06:24;6.97;;;4.90;;
28862;SDS011;15994;51.796;13.006;2023-04-06T09:08:52;10.07;;;5.05;;
28862;SDS011;15994;51.796;13.006;2023-04-06T09:11:19;7.95;;;5.10;;
28862;SDS011;15994;51.796;13.006;2023-04-06T09:13:47;6.60;;;4.28;;
28862;SDS011;15994;51.796;13.006;2023-04-06T09:16:15;9.75;;;4.88;;
28862;SDS011;15994;51.796;13.006;2023-04-06T09:18:42;7.53;;;4.55;;
28862;SDS011;15994;51.796;13.006;2023-04-06T09:21:09;7.38;;;4.63;;
28862;SDS011;15994;51.796;13.006;2023-04-06T09:23:36;6.93;;;4.50;;
28862;SDS011;15994;51.796;13.006;2023-04-06T09:26:07;7.22;;;4.30;;
28862;SDS011;15994;51.796;13.006;2023-04-06T09:28:51;8.98;;;4.63;;
28862;SDS011;15994;51.796;13.006;2023-04-06T09:31:23;6.15;;;4.40;;
28862;SDS011;15994;51.796;13.006;2023-04-06T09:33:52;6.53;;;4.32;;
28862;SDS011;15994;51.796;13.006;2023-04-06T09:36:19;8.10;;;4.45;;
28862;SDS011;15994;51.796;13.006;2023-04-06T09:38:56;9.30;;;5.28;;
28862;SDS011;15994;51.796;13.006;2023-04-06T09:41:24;7.90;;;5.30;;
28862;SDS011;15994;51.796;13.006;2023-04-06T09:44:04;6.82;;;4.78;;
28862;SDS011;15994;51.796;13.006;2023-04-06T09:46:36;8.20;;;4.95;;
28862;SDS011;15994;51.796;13.006;2023-04-06T09:49:04;7.55;;;4.70;;
28862;SDS011;15994;51.796;13.006;2023-04-06T09:51:35;6.50;;;4.55;;
28862;SDS011;15994;51.796;13.006;2023-04-06T09:54:06;7.77;;;4.87;;
28862;SDS011;15994;51.796;13.006;2023-04-06T09:56:39;8.90;;;5.18;;
28862;SDS011;15994;51.796;13.006;2023-04-06T09:59:16;8.02;;;5.10;;
28862;SDS011;15994;51.796;13.006;2023-04-06T10:01:52;7.07;;;5.05;;
28862;SDS011;15994;51.796;13.006;2023-04-06T10:06:57;8.57;;;4.30;;
28862;SDS011;15994;51.796;13.006;2023-04-06T10:09:25;7.60;;;4.65;;
28862;SDS011;15994;51.796;13.006;2023-04-06T10:12:00;7.82;;;4.90;;
28862;SDS011;15994;51.796;13.006;2023-04-06T10:14:29;9.00;;;5.13;;
28862;SDS011;15994;51.796;13.006;2023-04-06T10:16:57;5.85;;;4.30;;
28862;SDS011;15994;51.796;13.006;2023-04-06T10:19:25;8.88;;;4.55;;
28862;SDS011;15994;51.796;13.006;2023-04-06T10:21:55;8.40;;;4.88;;
28862;SDS011;15994;51.796;13.006;2023-04-06T10:24:23;6.90;;;4.30;;
28862;SDS011;15994;51.796;13.006;2023-04-06T10:26:57;7.13;;;4.57;;
28862;SDS011;15994;51.796;13.006;2023-04-06T10:29:43;6.53;;;4.22;;
28862;SDS011;15994;51.796;13.006;2023-04-06T10:32:13;7.28;;;4.72;;
28862;SDS011;15994;51.796;13.006;2023-04-06T10:34:40;7.53;;;4.90;;
28862;SDS011;15994;51.796;13.006;2023-04-06T10:37:10;7.95;;;4.78;;
28862;SDS011;15994;51.796;13.006;2023-04-06T10:39:53;5.82;;;4.60;;
28862;SDS011;15994;51.796;13.006;2023-04-06T10:42:36;8.60;;;4.45;;
28862;SDS011;15994;51.796;13.006;2023-04-06T10:45:06;8.50;;;4.95;;
28862;SDS011;15994;51.796;13.006;2023-04-06T10:47:44;6.65;;;4.30;;
28862;SDS011;15994;51.796;13.006;2023-04-06T10:50:11;6.47;;;4.40;;
28862;SDS011;15994;51.796;13.006;2023-04-06T10:52:41;7.55;;;4.47;;
28862;SDS011;15994;51.796;13.006;2023-04-06T10:55:08;5.93;;;4.63;;
28862;SDS011;15994;51.796;13.006;2023-04-06T10:57:35;6.10;;;4.72;;
28862;SDS011;15994;51.796;13.006;2023-04-06T11:00:04;7.20;;;4.38;;
28862;SDS011;15994;51.796;13.006;2023-04-06T11:02:31;6.25;;;4.43;;
28862;SDS011;15994;51.796;13.006;2023-04-06T11:04:58;26.02;;;5.53;;
28862;SDS011;15994;51.796;13.006;2023-04-06T11:07:26;6.10;;;3.80;;
28862;SDS011;15994;51.796;13.006;2023-04-06T11:09:55;5.70;;;3.88;;
28862;SDS011;15994;51.796;13.006;2023-04-06T11:12:26;6.25;;;4.20;;
28862;SDS011;15994;51.796;13.006;2023-04-06T11:14:56;7.03;;;3.90;;
28862;SDS011;15994;51.796;13.006;2023-04-06T11:17:29;7.38;;;3.75;;
28862;SDS011;15994;51.796;13.006;2023-04-06T11:19:57;5.68;;;4.03;;
28862;SDS011;15994;51.796;13.006;2023-04-06T11:22:24;6.28;;;4.30;;
28862;SDS011;15994;51.796;13.006;2023-04-06T11:24:52;6.50;;;3.80;;
28862;SDS011;15994;51.796;13.006;2023-04-06T11:27:19;5.85;;;3.85;;
28862;SDS011;15994;51.796;13.006;2023-04-06T11:29:47;6.75;;;4.18;;
28862;SDS011;15994;51.796;13.006;2023-04-06T11:32:21;6.63;;;4.55;;
28862;SDS011;15994;51.796;13.006;2023-04-06T11:34:49;6.30;;;4.00;;
28862;SDS011;15994;51.796;13.006;2023-04-06T11:37:15;5.03;;;3.97;;
28862;SDS011;15994;51.796;13.006;2023-04-06T11:39:49;5.78;;;3.85;;
28862;SDS011;15994;51.796;13.006;2023-04-06T11:42:21;5.10;;;3.85;;
28862;SDS011;15994;51.796;13.006;2023-04-06T11:44:52;7.05;;;3.90;;
28862;SDS011;15994;51.796;13.006;2023-04-06T11:47:26;6.32;;;4.03;;
28862;SDS011;15994;51.796;13.006;2023-04-06T11:50:05;5.82;;;3.95;;
28862;SDS011;15994;51.796;13.006;2023-04-06T11:52:33;5.63;;;3.70;;
28862;SDS011;15994;51.796;13.006;2023-04-06T11:55:09;7.05;;;3.80;;
28862;SDS011;15994;51.796;13.006;2023-04-06T11:57:41;9.02;;;3.78;;
28862;SDS011;15994;51.796;13.006;2023-04-06T12:00:08;8.18;;;4.15;;
28862;SDS011;15994;51.796;13.006;2023-04-06T12:02:36;6.97;;;4.50;;
28862;SDS011;15994;51.796;13.006;2023-04-06T12:05:03;8.02;;;3.95;;
28862;SDS011;15994;51.796;13.006;2023-04-06T12:07:31;5.95;;;3.90;;
28862;SDS011;15994;51.796;13.006;2023-04-06T12:09:58;7.00;;;4.03;;
28862;SDS011;15994;51.796;13.006;2023-04-06T12:12:27;7.68;;;4.10;;
28862;SDS011;15994;51.796;13.006;2023-04-06T12:14:55;5.63;;;3.85;;
28862;SDS011;15994;51.796;13.006;2023-04-06T12:17:21;5.97;;;3.55;;
28862;SDS011;15994;51.796;13.006;2023-04-06T12:19:48;5.72;;;4.00;;
28862;SDS011;15994;51.796;13.006;2023-04-06T12:22:15;5.40;;;4.00;;
28862;SDS011;15994;51.796;13.006;2023-04-06T12:24:42;7.80;;;4.10;;
28862;SDS011;15994;51.796;13.006;2023-04-06T12:27:08;8.00;;;4.13;;
28862;SDS011;15994;51.796;13.006;2023-04-06T12:29:36;5.78;;;4.07;;
28862;SDS011;15994;51.796;13.006;2023-04-06T12:32:04;6.07;;;3.85;;
28862;SDS011;15994;51.796;13.006;2023-04-06T12:34:31;5.45;;;3.97;;
28862;SDS011;15994;51.796;13.006;2023-04-06T12:36:58;6.03;;;3.95;;
28862;SDS011;15994;51.796;13.006;2023-04-06T12:39:25;7.13;;;3.72;;
28862;SDS011;15994;51.796;13.006;2023-04-06T12:41:53;7.78;;;3.72;;
28862;SDS011;15994;51.796;13.006;2023-04-06T12:44:20;5.13;;;3.65;;
28862;SDS011;15994;51.796;13.006;2023-04-06T12:46:46;5.45;;;3.85;;
28862;SDS011;15994;51.796;13.006;2023-04-06T12:49:13;6.32;;;3.45;;
28862;SDS011;15994;51.796;13.006;2023-04-06T12:51:41;6.70;;;3.22;;
28862;SDS011;15994;51.796;13.006;2023-04-06T12:54:08;7.05;;;3.95;;
28862;SDS011;15994;51.796;13.006;2023-04-06T12:56:36;6.35;;;3.50;;
28862;SDS011;15994;51.796;13.006;2023-04-06T12:59:02;7.30;;;4.00;;
28862;SDS011;15994;51.796;13.006;2023-04-06T13:01:30;7.50;;;4.25;;
28862;SDS011;15994;51.796;13.006;2023-04-06T13:03:56;7.60;;;4.20;;
28862;SDS011;15994;51.796;13.006;2023-04-06T13:06:24;7.40;;;4.30;;
28862;SDS011;15994;51.796;13.006;2023-04-06T13:08:52;7.78;;;4.57;;
28862;SDS011;15994;51.796;13.006;2023-04-06T13:11:19;6.53;;;4.28;;
28862;SDS011;15994;51.796;13.006;2023-04-06T13:13:47;6.50;;;4.30;;
28862;SDS011;15994;51.796;13.006;2023-04-06T13:16:14;5.78;;;3.78;;
28862;SDS011;15994;51.796;13.006;2023-04-06T13:18:41;7.50;;;3.97;;
28862;SDS011;15994;51.796;13.006;2023-04-06T13:21:08;5.45;;;3.53;;
28862;SDS011;15994;51.796;13.006;2023-04-06T13:23:34;5.25;;;3.90;;
28862;SDS011;15994;51.796;13.006;2023-04-06T13:26:05;5.60;;;4.10;;
28862;SDS011;15994;51.796;13.006;2023-04-06T13:28:33;7.35;;;4.10;;
28862;SDS011;15994;51.796;13.006;2023-04-06T13:31:02;7.47;;;4.20;;
28862;SDS011;15994;51.796;13.006;2023-04-06T13:33:29;6.13;;;4.10;;
28862;SDS011;15994;51.796;13.006;2023-04-06T13:35:57;5.95;;;3.78;;
28862;SDS011;15994;51.796;13.006;2023-04-06T13:38:24;5.35;;;3.55;;
28862;SDS011;15994;51.796;13.006;2023-04-06T13:40:51;5.18;;;3.97;;
28862;SDS011;15994;51.796;13.006;2023-04-06T13:43:18;4.65;;;3.83;;
28862;SDS011;15994;51.796;13.006;2023-04-06T13:45:49;7.63;;;4.10;;
28862;SDS011;15994;51.796;13.006;2023-04-06T13:48:19;4.43;;;3.50;;
28862;SDS011;15994;51.796;13.006;2023-04-06T13:50:46;5.85;;;3.42;;
28862;SDS011;15994;51.796;13.006;2023-04-06T13:53:13;8.20;;;4.20;;
28862;SDS011;15994;51.796;13.006;2023-04-06T13:55:40;5.28;;;4.00;;
28862;SDS011;15994;51.796;13.006;2023-04-06T13:58:07;6.53;;;3.80;;
28862;SDS011;15994;51.796;13.006;2023-04-06T14:00:33;5.68;;;3.60;;
28862;SDS011;15994;51.796;13.006;2023-04-06T14:03:00;9.20;;;3.97;;
28862;SDS011;15994;51.796;13.006;2023-04-06T14:05:30;6.25;;;3.85;;
28862;SDS011;15994;51.796;13.006;2023-04-06T14:07:57;6.63;;;3.72;;
28862;SDS011;15994;51.796;13.006;2023-04-06T14:10:24;22.88;;;5.10;;
28862;SDS011;15994;51.796;13.006;2023-04-06T14:12:52;8.40;;;4.13;;
28862;SDS011;15994;51.796;13.006;2023-04-06T14:15:18;7.20;;;3.90;;
28862;SDS011;15994;51.796;13.006;2023-04-06T14:17:46;4.60;;;3.80;;
28862;SDS011;15994;51.796;13.006;2023-04-06T14:20:13;6.47;;;3.78;;
28862;SDS011;15994;51.796;13.006;2023-04-06T14:22:40;7.40;;;4.20;;
28862;SDS011;15994;51.796;13.006;2023-04-06T14:25:07;5.78;;;3.97;;
28862;SDS011;15994;51.796;13.006;2023-04-06T14:27:34;5.70;;;3.88;;
28862;SDS011;15994;51.796;13.006;2023-04-06T14:30:01;4.95;;;3.40;;
28862;SDS011;15994;51.796;13.006;2023-04-06T14:32:28;7.88;;;3.80;;
28862;SDS011;15994;51.796;13.006;2023-04-06T14:34:55;6.82;;;4.43;;
28862;SDS011;15994;51.796;13.006;2023-04-06T14:37:21;6.15;;;3.80;;